sensor_id;sensor_type;location;lat;lon;timestamp;pressure;altitude;pressure_sealevel;temperature;humidity
71772;BME280;59606;52.138;5.424;2023-05-16T00:00:46;102042.16;;;10.56;78.31
71772;BME280;59606;52.138;5.424;2023-05-16T00:03:14;102034.47;;;10.52;78.29
71772;BME280;59606;52.138;5.424;2023-05-16T00:05:40;102037.09;;;10.52;78.44
71772;BME280;59606;52.138;5.424;2023-05-16T00:08:07;102044.91;;;10.52;78.80
71772;BME280;59606;52.138;5.424;2023-05-16T00:10:33;102047.47;;;10.53;78.91
71772;BME280;59606;52.138;5.424;2023-05-16T00:13:00;102048.41;;;10.51;78.60
71772;BME280;59606;52.138;5.424;2023-05-16T00:15:27;102050.94;;;10.52;78.28
71772;BME280;59606;52.138;5.424;2023-05-16T00:17:55;102048.53;;;10.48;78.77
71772;BME280;59606;52.138;5.424;2023-05-16T00:20:26;102050.31;;;10.46;78.78
71772;BME280;59606;52.138;5.424;2023-05-16T00:22:54;102056.53;;;10.42;78.82
71772;BME280;59606;52.138;5.424;2023-05-16T00:25:22;102051.59;;;10.34;78.93
71772;BME280;59606;52.138;5.424;2023-05-16T00:27:48;102059.56;;;10.29;79.13
71772;BME280;59606;52.138;5.424;2023-05-16T00:30:18;102052.72;;;10.25;79.60
71772;BME280;59606;52.138;5.424;2023-05-16T00:32:44;102047.72;;;10.19;79.48
71772;BME280;59606;52.138;5.424;2023-05-16T00:35:11;102043.59;;;10.13;80.02
71772;BME280;59606;52.138;5.424;2023-05-16T00:37:37;102050.78;;;10.05;79.71
71772;BME280;59606;52.138;5.424;2023-05-16T00:40:05;102054.47;;;10.00;80.25
71772;BME280;59606;52.138;5.424;2023-05-16T00:42:31;102051.06;;;9.98;80.98
71772;BME280;59606;52.138;5.424;2023-05-16T00:44:59;102055.50;;;9.94;80.66
71772;BME280;59606;52.138;5.424;2023-05-16T00:47:25;102050.50;;;9.88;80.41
71772;BME280;59606;52.138;5.424;2023-05-16T00:49:52;102057.53;;;9.86;80.68
71772;BME280;59606;52.138;5.424;2023-05-16T00:52:19;102061.16;;;9.80;80.74
71772;BME280;59606;52.138;5.424;2023-05-16T00:54:45;102055.34;;;9.72;80.68
71772;BME280;59606;52.138;5.424;2023-05-16T00:57:12;102059.84;;;9.67;81.21
71772;BME280;59606;52.138;5.424;2023-05-16T00:59:39;102050.34;;;9.66;80.95
71772;BME280;59606;52.138;5.424;2023-05-16T01:02:06;102053.03;;;9.63;80.89
71772;BME280;59606;52.138;5.424;2023-05-16T01:04:33;102047.09;;;9.59;81.31
71772;BME280;59606;52.138;5.424;2023-05-16T01:07:01;102054.97;;;9.56;81.19
71772;BME280;59606;52.138;5.424;2023-05-16T01:09:27;102055.06;;;9.53;81.71
71772;BME280;59606;52.138;5.424;2023-05-16T01:17:48;102049.25;;;9.45;82.03
71772;BME280;59606;52.138;5.424;2023-05-16T01:20:45;102056.25;;;9.43;81.29
71772;BME280;59606;52.138;5.424;2023-05-16T01:26:15;102065.19;;;9.34;82.21
71772;BME280;59606;52.138;5.424;2023-05-16T01:28:45;102067.94;;;9.30;81.34
71772;BME280;59606;52.138;5.424;2023-05-16T01:31:12;102064.59;;;9.25;81.99
71772;BME280;59606;52.138;5.424;2023-05-16T01:33:39;102063.75;;;9.24;82.25
71772;BME280;59606;52.138;5.424;2023-05-16T01:41:52;102057.94;;;9.16;81.94
71772;BME280;59606;52.138;5.424;2023-05-16T01:44:39;102062.47;;;9.09;82.14
71772;BME280;59606;52.138;5.424;2023-05-16T01:47:13;102064.22;;;9.09;82.13
71772;BME280;59606;52.138;5.424;2023-05-16T01:55:14;102075.81;;;8.97;82.18
71772;BME280;59606;52.138;5.424;2023-05-16T01:57:41;102073.38;;;8.91;82.34
71772;BME280;59606;52.138;5.424;2023-05-16T02:00:09;102070.84;;;8.88;82.43
71772;BME280;59606;52.138;5.424;2023-05-16T02:02:36;102081.31;;;8.85;82.13
71772;BME280;59606;52.138;5.424;2023-05-16T02:05:03;102083.09;;;8.84;82.90
71772;BME280;59606;52.138;5.424;2023-05-16T02:07:29;102076.22;;;8.82;82.86
71772;BME280;59606;52.138;5.424;2023-05-16T02:09:56;102088.41;;;8.80;82.87
71772;BME280;59606;52.138;5.424;2023-05-16T02:12:24;102089.41;;;8.76;82.37
71772;BME280;59606;52.138;5.424;2023-05-16T02:14:51;102088.53;;;8.75;83.16
71772;BME280;59606;52.138;5.424;2023-05-16T02:17:17;102092.03;;;8.74;83.14
71772;BME280;59606;52.138;5.424;2023-05-16T02:19:44;102095.53;;;8.73;83.34
71772;BME280;59606;52.138;5.424;2023-05-16T02:22:10;102091.25;;;8.70;82.94
71772;BME280;59606;52.138;5.424;2023-05-16T02:24:37;102088.72;;;8.69;83.38
71772;BME280;59606;52.138;5.424;2023-05-16T02:27:03;102094.00;;;8.66;83.47
71772;BME280;59606;52.138;5.424;2023-05-16T02:29:30;102097.44;;;8.66;82.99
71772;BME280;59606;52.138;5.424;2023-05-16T02:31:57;102104.47;;;8.63;83.30
71772;BME280;59606;52.138;5.424;2023-05-16T02:34:23;102102.78;;;8.60;83.69
71772;BME280;59606;52.138;5.424;2023-05-16T02:36:50;102102.78;;;8.60;83.79
71772;BME280;59606;52.138;5.424;2023-05-16T02:39:16;102096.75;;;8.58;83.92
71772;BME280;59606;52.138;5.424;2023-05-16T02:41:43;102105.47;;;8.57;83.99
71772;BME280;59606;52.138;5.424;2023-05-16T02:44:09;102098.56;;;8.56;83.67
71772;BME280;59606;52.138;5.424;2023-05-16T02:46:36;102115.06;;;8.55;83.66
71772;BME280;59606;52.138;5.424;2023-05-16T02:49:03;102107.28;;;8.54;84.29
71772;BME280;59606;52.138;5.424;2023-05-16T02:51:29;102103.00;;;8.51;83.81
71772;BME280;59606;52.138;5.424;2023-05-16T02:53:56;102106.50;;;8.50;84.44
71772;BME280;59606;52.138;5.424;2023-05-16T02:56:24;102104.81;;;8.49;84.19
71772;BME280;59606;52.138;5.424;2023-05-16T02:58:53;102104.91;;;8.46;84.50
71772;BME280;59606;52.138;5.424;2023-05-16T03:01:20;102119.56;;;8.47;84.74
71772;BME280;59606;52.138;5.424;2023-05-16T03:03:46;102110.97;;;8.45;84.43
71772;BME280;59606;52.138;5.424;2023-05-16T03:06:13;102120.56;;;8.43;84.47
71772;BME280;59606;52.138;5.424;2023-05-16T03:08:39;102115.38;;;8.41;84.34
71772;BME280;59606;52.138;5.424;2023-05-16T03:11:06;102115.38;;;8.41;84.36
71772;BME280;59606;52.138;5.424;2023-05-16T03:13:33;102112.00;;;8.39;85.25
71772;BME280;59606;52.138;5.424;2023-05-16T03:15:59;102114.59;;;8.38;85.11
71772;BME280;59606;52.138;5.424;2023-05-16T03:18:26;102117.22;;;8.36;84.96
71772;BME280;59606;52.138;5.424;2023-05-16T03:20:52;102123.34;;;8.34;85.45
71772;BME280;59606;52.138;5.424;2023-05-16T03:23:19;102120.03;;;8.29;84.94
71772;BME280;59606;52.138;5.424;2023-05-16T03:25:46;102129.56;;;8.26;85.21
71772;BME280;59606;52.138;5.424;2023-05-16T03:28:15;102124.44;;;8.25;85.43
71772;BME280;59606;52.138;5.424;2023-05-16T03:30:42;102130.47;;;8.25;85.80
71772;BME280;59606;52.138;5.424;2023-05-16T03:33:08;102135.69;;;8.24;85.94
71772;BME280;59606;52.138;5.424;2023-05-16T03:35:35;102132.31;;;8.20;85.55
71772;BME280;59606;52.138;5.424;2023-05-16T03:38:02;102133.16;;;8.22;85.39
71772;BME280;59606;52.138;5.424;2023-05-16T03:40:29;102128.81;;;8.23;85.90
71772;BME280;59606;52.138;5.424;2023-05-16T03:42:55;102131.47;;;8.20;85.90
71772;BME280;59606;52.138;5.424;2023-05-16T03:45:22;102136.72;;;8.18;84.65
71772;BME280;59606;52.138;5.424;2023-05-16T03:47:48;102135.88;;;8.16;85.17
71772;BME280;59606;52.138;5.424;2023-05-16T03:50:16;102137.63;;;8.16;84.54
71772;BME280;59606;52.138;5.424;2023-05-16T03:52:43;102139.38;;;8.15;85.02
71772;BME280;59606;52.138;5.424;2023-05-16T03:55:09;102148.94;;;8.13;85.11
71772;BME280;59606;52.138;5.424;2023-05-16T03:57:40;102146.38;;;8.12;84.39
71772;BME280;59606;52.138;5.424;2023-05-16T04:00:09;102151.59;;;8.10;85.05
71772;BME280;59606;52.138;5.424;2023-05-16T04:02:38;102151.66;;;8.09;84.31
71772;BME280;59606;52.138;5.424;2023-05-16T04:05:10;102142.97;;;8.10;84.65
71772;BME280;59606;52.138;5.424;2023-05-16T04:07:37;102147.25;;;8.11;84.74
71772;BME280;59606;52.138;5.424;2023-05-16T04:10:04;102149.06;;;8.09;84.28
71772;BME280;59606;52.138;5.424;2023-05-16T04:12:31;102155.09;;;8.09;84.52
71772;BME280;59606;52.138;5.424;2023-05-16T04:14:58;102149.00;;;8.10;84.68
71772;BME280;59606;52.138;5.424;2023-05-16T04:17:24;102148.97;;;8.12;84.57
71772;BME280;59606;52.138;5.424;2023-05-16T04:19:51;102152.38;;;8.14;84.71
71772;BME280;59606;52.138;5.424;2023-05-16T04:22:20;102153.28;;;8.11;85.01
71772;BME280;59606;52.138;5.424;2023-05-16T04:24:47;102158.41;;;8.14;85.06
71772;BME280;59606;52.138;5.424;2023-05-16T04:27:14;102164.44;;;8.15;85.27
71772;BME280;59606;52.138;5.424;2023-05-16T04:29:40;102166.19;;;8.14;84.62
71772;BME280;59606;52.138;5.424;2023-05-16T04:32:07;102166.19;;;8.14;84.96
71772;BME280;59606;52.138;5.424;2023-05-16T04:34:34;102171.38;;;8.16;84.60
71772;BME280;59606;52.138;5.424;2023-05-16T04:37:06;102172.25;;;8.15;84.52
71772;BME280;59606;52.138;5.424;2023-05-16T04:39:34;102171.38;;;8.16;84.93
71772;BME280;59606;52.138;5.424;2023-05-16T04:42:01;102170.53;;;8.15;85.00
71772;BME280;59606;52.138;5.424;2023-05-16T04:44:29;102167.94;;;8.15;84.96
71772;BME280;59606;52.138;5.424;2023-05-16T04:46:55;102173.06;;;8.18;85.02
71772;BME280;59606;52.138;5.424;2023-05-16T04:49:22;102177.34;;;8.19;85.27
71772;BME280;59606;52.138;5.424;2023-05-16T04:51:48;102179.03;;;8.20;84.76
71772;BME280;59606;52.138;5.424;2023-05-16T04:54:15;102179.03;;;8.22;84.56
71772;BME280;59606;52.138;5.424;2023-05-16T04:56:41;102185.00;;;8.25;85.19
71772;BME280;59606;52.138;5.424;2023-05-16T04:59:08;102193.56;;;8.29;85.12
71772;BME280;59606;52.138;5.424;2023-05-16T05:01:34;102187.47;;;8.32;85.55
71772;BME280;59606;52.138;5.424;2023-05-16T05:04:01;102189.16;;;8.33;85.36
71772;BME280;59606;52.138;5.424;2023-05-16T05:06:27;102195.09;;;8.39;85.29
71772;BME280;59606;52.138;5.424;2023-05-16T05:08:54;102195.78;;;8.46;85.62
71772;BME280;59606;52.138;5.424;2023-05-16T05:11:20;102196.56;;;8.49;84.71
71772;BME280;59606;52.138;5.424;2023-05-16T05:13:48;102191.25;;;8.54;85.38
71772;BME280;59606;52.138;5.424;2023-05-16T05:16:18;102195.41;;;8.61;85.09
71772;BME280;59606;52.138;5.424;2023-05-16T05:18:44;102193.56;;;8.66;84.84
71772;BME280;59606;52.138;5.424;2023-05-16T05:21:11;102192.44;;;8.77;84.43
71772;BME280;59606;52.138;5.424;2023-05-16T05:23:37;102199.09;;;8.87;84.92
71772;BME280;59606;52.138;5.424;2023-05-16T05:26:04;102198.09;;;8.92;83.76
71772;BME280;59606;52.138;5.424;2023-05-16T05:28:30;102204.78;;;9.01;83.20
71772;BME280;59606;52.138;5.424;2023-05-16T05:30:57;102204.59;;;9.09;83.59
71772;BME280;59606;52.138;5.424;2023-05-16T05:33:26;102208.66;;;9.19;82.82
71772;BME280;59606;52.138;5.424;2023-05-16T05:35:56;102217.94;;;9.28;82.19
71772;BME280;59606;52.138;5.424;2023-05-16T05:38:22;102209.44;;;9.21;81.90
71772;BME280;59606;52.138;5.424;2023-05-16T05:40:49;102213.72;;;9.24;82.87
71772;BME280;59606;52.138;5.424;2023-05-16T05:43:16;102214.66;;;9.52;82.53
71772;BME280;59606;52.138;5.424;2023-05-16T05:45:43;102218.16;;;10.10;80.76
71772;BME280;59606;52.138;5.424;2023-05-16T05:48:10;102208.94;;;10.81;78.93
71772;BME280;59606;52.138;5.424;2023-05-16T05:50:37;102205.28;;;11.61;77.46
71772;BME280;59606;52.138;5.424;2023-05-16T05:53:04;102209.13;;;12.41;72.89
71772;BME280;59606;52.138;5.424;2023-05-16T05:55:31;102208.72;;;12.93;71.41
71772;BME280;59606;52.138;5.424;2023-05-16T05:57:57;102208.03;;;13.49;68.17
71772;BME280;59606;52.138;5.424;2023-05-16T06:00:24;102207.34;;;13.83;66.86
71772;BME280;59606;52.138;5.424;2023-05-16T06:02:51;102208.63;;;14.11;65.56
71772;BME280;59606;52.138;5.424;2023-05-16T06:05:18;102223.25;;;13.98;64.12
71772;BME280;59606;52.138;5.424;2023-05-16T06:07:45;102228.28;;;13.64;65.81
71772;BME280;59606;52.138;5.424;2023-05-16T06:10:11;102227.03;;;13.13;65.44
71772;BME280;59606;52.138;5.424;2023-05-16T06:12:37;102225.00;;;12.15;67.60
71772;BME280;59606;52.138;5.424;2023-05-16T06:15:04;102224.84;;;11.49;70.75
71772;BME280;59606;52.138;5.424;2023-05-16T06:17:31;102240.38;;;11.03;72.20
71772;BME280;59606;52.138;5.424;2023-05-16T06:19:58;102235.31;;;10.72;73.39
71772;BME280;59606;52.138;5.424;2023-05-16T06:22:24;102240.13;;;10.58;74.19
71772;BME280;59606;52.138;5.424;2023-05-16T06:24:51;102248.03;;;10.55;74.96
71772;BME280;59606;52.138;5.424;2023-05-16T06:27:17;102249.44;;;10.65;74.93
71772;BME280;59606;52.138;5.424;2023-05-16T06:29:44;102249.44;;;10.65;75.41
71772;BME280;59606;52.138;5.424;2023-05-16T06:32:10;102244.50;;;10.57;75.15
71772;BME280;59606;52.138;5.424;2023-05-16T06:34:38;102257.53;;;10.57;75.28
71772;BME280;59606;52.138;5.424;2023-05-16T06:37:05;102251.56;;;10.54;76.04
71772;BME280;59606;52.138;5.424;2023-05-16T06:39:31;102245.25;;;10.61;75.71
71772;BME280;59606;52.138;5.424;2023-05-16T06:41:58;102246.81;;;10.67;77.05
71772;BME280;59606;52.138;5.424;2023-05-16T06:44:24;102247.22;;;10.79;75.73
71772;BME280;59606;52.138;5.424;2023-05-16T06:46:51;102237.69;;;10.80;75.17
71772;BME280;59606;52.138;5.424;2023-05-16T06:49:18;102243.53;;;10.87;75.10
71772;BME280;59606;52.138;5.424;2023-05-16T06:51:44;102245.91;;;10.93;73.81
71772;BME280;59606;52.138;5.424;2023-05-16T06:54:11;102248.84;;;10.83;74.09
71772;BME280;59606;52.138;5.424;2023-05-16T06:56:38;102257.81;;;11.01;74.38
71772;BME280;59606;52.138;5.424;2023-05-16T06:59:04;102256.69;;;11.08;73.41
71772;BME280;59606;52.138;5.424;2023-05-16T07:01:31;102250.44;;;11.14;73.72
71772;BME280;59606;52.138;5.424;2023-05-16T07:03:57;102247.03;;;11.37;72.56
71772;BME280;59606;52.138;5.424;2023-05-16T07:06:24;102256.47;;;11.40;71.46
71772;BME280;59606;52.138;5.424;2023-05-16T07:08:51;102253.81;;;11.41;72.70
71772;BME280;59606;52.138;5.424;2023-05-16T07:11:17;102254.13;;;11.57;72.22
71772;BME280;59606;52.138;5.424;2023-05-16T07:13:43;102258.47;;;11.56;71.04
71772;BME280;59606;52.138;5.424;2023-05-16T07:16:10;102250.16;;;11.47;69.51
71772;BME280;59606;52.138;5.424;2023-05-16T07:18:37;102259.59;;;11.49;70.56
71772;BME280;59606;52.138;5.424;2023-05-16T07:21:04;102249.75;;;11.57;70.42
71772;BME280;59606;52.138;5.424;2023-05-16T07:23:31;102255.09;;;11.78;71.03
71772;BME280;59606;52.138;5.424;2023-05-16T07:25:57;102257.25;;;11.90;71.39
71772;BME280;59606;52.138;5.424;2023-05-16T07:28:24;102263.63;;;12.07;71.36
71772;BME280;59606;52.138;5.424;2023-05-16T07:30:51;102258.34;;;12.08;69.81
71772;BME280;59606;52.138;5.424;2023-05-16T07:33:17;102261.63;;;12.13;67.91
71772;BME280;59606;52.138;5.424;2023-05-16T07:35:44;102260.38;;;12.00;68.96
71772;BME280;59606;52.138;5.424;2023-05-16T07:38:10;102263.25;;;11.94;68.47
71772;BME280;59606;52.138;5.424;2023-05-16T07:40:37;102263.97;;;11.97;68.53
71772;BME280;59606;52.138;5.424;2023-05-16T07:43:04;102259.50;;;12.01;67.97
71772;BME280;59606;52.138;5.424;2023-05-16T07:45:30;102251.94;;;11.93;68.78
71772;BME280;59606;52.138;5.424;2023-05-16T07:47:57;102257.16;;;11.93;67.90
71772;BME280;59606;52.138;5.424;2023-05-16T07:50:25;102264.09;;;11.94;66.75
71772;BME280;59606;52.138;5.424;2023-05-16T07:52:52;102262.03;;;12.02;68.98
71772;BME280;59606;52.138;5.424;2023-05-16T07:55:19;102266.81;;;12.15;68.31
71772;BME280;59606;52.138;5.424;2023-05-16T07:57:48;102276.75;;;12.05;66.76
71772;BME280;59606;52.138;5.424;2023-05-16T08:00:15;102271.97;;;11.93;66.59
71772;BME280;59606;52.138;5.424;2023-05-16T08:02:42;102283.72;;;11.81;70.41
71772;BME280;59606;52.138;5.424;2023-05-16T08:05:09;102285.28;;;11.62;76.09
71772;BME280;59606;52.138;5.424;2023-05-16T08:07:36;102289.34;;;11.45;77.32
71772;BME280;59606;52.138;5.424;2023-05-16T08:10:03;102294.88;;;11.11;77.69
71772;BME280;59606;52.138;5.424;2023-05-16T08:12:29;102298.13;;;10.91;79.28
71772;BME280;59606;52.138;5.424;2023-05-16T08:14:56;102291.44;;;10.82;80.19
71772;BME280;59606;52.138;5.424;2023-05-16T08:17:22;102289.09;;;10.75;81.14
71772;BME280;59606;52.138;5.424;2023-05-16T08:19:49;102291.34;;;10.85;80.39
71772;BME280;59606;52.138;5.424;2023-05-16T08:22:16;102290.56;;;11.10;81.10
71772;BME280;59606;52.138;5.424;2023-05-16T08:24:42;102282.91;;;11.30;80.92
71772;BME280;59606;52.138;5.424;2023-05-16T08:27:09;102287.03;;;11.61;81.86
71772;BME280;59606;52.138;5.424;2023-05-16T08:29:36;102272.34;;;11.82;81.54
71772;BME280;59606;52.138;5.424;2023-05-16T08:32:02;102280.44;;;11.99;79.94
71772;BME280;59606;52.138;5.424;2023-05-16T08:34:30;102279.44;;;12.25;80.81
71772;BME280;59606;52.138;5.424;2023-05-16T08:36:57;102274.03;;;12.52;78.29
71772;BME280;59606;52.138;5.424;2023-05-16T08:39:23;102269.41;;;12.59;75.73
71772;BME280;59606;52.138;5.424;2023-05-16T08:41:51;102266.69;;;12.62;76.21
71772;BME280;59606;52.138;5.424;2023-05-16T08:44:17;102262.69;;;12.73;71.60
71772;BME280;59606;52.138;5.424;2023-05-16T08:46:50;102269.78;;;12.49;70.61
71772;BME280;59606;52.138;5.424;2023-05-16T08:49:17;102265.22;;;12.33;71.33
71772;BME280;59606;52.138;5.424;2023-05-16T08:51:50;102265.84;;;12.17;69.78
71772;BME280;59606;52.138;5.424;2023-05-16T08:54:17;102272.47;;;12.02;70.46
71772;BME280;59606;52.138;5.424;2023-05-16T08:56:44;102268.50;;;12.16;70.30
71772;BME280;59606;52.138;5.424;2023-05-16T08:59:11;102261.41;;;12.41;72.14
71772;BME280;59606;52.138;5.424;2023-05-16T09:01:37;102264.47;;;12.73;71.89
71772;BME280;59606;52.138;5.424;2023-05-16T09:04:06;102268.63;;;12.99;70.11
71772;BME280;59606;52.138;5.424;2023-05-16T09:06:33;102273.66;;;13.04;65.40
71772;BME280;59606;52.138;5.424;2023-05-16T09:09:00;102277.31;;;13.00;64.51
71772;BME280;59606;52.138;5.424;2023-05-16T09:11:27;102284.91;;;13.06;64.95
71772;BME280;59606;52.138;5.424;2023-05-16T09:13:54;102283.09;;;13.08;66.01
71772;BME280;59606;52.138;5.424;2023-05-16T09:16:21;102280.31;;;13.11;63.20
71772;BME280;59606;52.138;5.424;2023-05-16T09:18:55;102282.91;;;13.12;61.81
71772;BME280;59606;52.138;5.424;2023-05-16T09:21:33;102287.41;;;13.09;60.02
71772;BME280;59606;52.138;5.424;2023-05-16T09:24:04;102291.31;;;12.98;59.94
71772;BME280;59606;52.138;5.424;2023-05-16T09:26:36;102282.09;;;13.10;62.09
71772;BME280;59606;52.138;5.424;2023-05-16T09:29:20;102285.91;;;13.24;59.38
71772;BME280;59606;52.138;5.424;2023-05-16T09:31:48;102285.91;;;13.24;58.24
71772;BME280;59606;52.138;5.424;2023-05-16T09:34:15;102285.66;;;13.30;59.30
71772;BME280;59606;52.138;5.424;2023-05-16T09:36:42;102279.13;;;13.40;56.55
71772;BME280;59606;52.138;5.424;2023-05-16T09:39:09;102282.00;;;13.34;55.85
71772;BME280;59606;52.138;5.424;2023-05-16T09:41:36;102283.03;;;13.50;57.01
71772;BME280;59606;52.138;5.424;2023-05-16T09:44:04;102286.28;;;13.76;55.78
71772;BME280;59606;52.138;5.424;2023-05-16T09:46:33;102278.13;;;14.01;56.67
71772;BME280;59606;52.138;5.424;2023-05-16T09:49:01;102291.88;;;14.06;56.63
71772;BME280;59606;52.138;5.424;2023-05-16T09:51:28;102281.59;;;14.01;56.81
71772;BME280;59606;52.138;5.424;2023-05-16T09:53:57;102285.06;;;14.21;56.68
71772;BME280;59606;52.138;5.424;2023-05-16T09:56:23;102277.94;;;14.42;57.43
71772;BME280;59606;52.138;5.424;2023-05-16T09:58:51;102288.31;;;14.64;54.81
71772;BME280;59606;52.138;5.424;2023-05-16T10:01:18;102271.97;;;14.76;54.13
71772;BME280;59606;52.138;5.424;2023-05-16T10:03:44;102277.41;;;14.71;52.28
71772;BME280;59606;52.138;5.424;2023-05-16T10:06:12;102272.88;;;14.75;53.89
71772;BME280;59606;52.138;5.424;2023-05-16T10:08:42;102276.44;;;14.74;55.38
71772;BME280;59606;52.138;5.424;2023-05-16T10:11:09;102274.34;;;14.80;56.59
71772;BME280;59606;52.138;5.424;2023-05-16T10:13:37;102282.81;;;14.68;53.82
71772;BME280;59606;52.138;5.424;2023-05-16T10:16:10;102279.06;;;14.74;54.96
71772;BME280;59606;52.138;5.424;2023-05-16T10:18:38;102285.25;;;14.90;52.86
71772;BME280;59606;52.138;5.424;2023-05-16T10:21:07;102284.44;;;14.71;51.61
71772;BME280;59606;52.138;5.424;2023-05-16T10:23:40;102283.59;;;14.53;51.46
71772;BME280;59606;52.138;5.424;2023-05-16T10:26:08;102284.69;;;14.66;52.23
71772;BME280;59606;52.138;5.424;2023-05-16T10:28:35;102279.75;;;14.95;52.48
71772;BME280;59606;52.138;5.424;2023-05-16T10:31:02;102280.28;;;14.84;51.99
71772;BME280;59606;52.138;5.424;2023-05-16T10:33:29;102288.31;;;14.81;53.34
71772;BME280;59606;52.138;5.424;2023-05-16T10:35:56;102288.56;;;14.76;52.64
71772;BME280;59606;52.138;5.424;2023-05-16T10:38:24;102278.91;;;14.77;53.23
71772;BME280;59606;52.138;5.424;2023-05-16T10:40:52;102277.66;;;15.01;51.59
71772;BME280;59606;52.138;5.424;2023-05-16T10:43:26;102274.59;;;15.11;51.75
71772;BME280;59606;52.138;5.424;2023-05-16T10:45:57;102283.22;;;14.95;52.74
71772;BME280;59606;52.138;5.424;2023-05-16T10:48:32;102285.41;;;14.87;53.68
71772;BME280;59606;52.138;5.424;2023-05-16T10:50:58;102289.66;;;14.90;54.53
71772;BME280;59606;52.138;5.424;2023-05-16T10:53:29;102275.84;;;14.86;54.36
71772;BME280;59606;52.138;5.424;2023-05-16T11:12:08;102281.69;;;15.26;51.58
71772;BME280;59606;52.138;5.424;2023-05-16T11:17:07;102278.06;;;15.11;52.33
71772;BME280;59606;52.138;5.424;2023-05-16T11:22:32;102279.75;;;14.95;50.38
71772;BME280;59606;52.138;5.424;2023-05-16T11:25:07;102289.25;;;14.97;50.27
71772;BME280;59606;52.138;5.424;2023-05-16T11:27:45;102274.91;;;15.04;50.60
71772;BME280;59606;52.138;5.424;2023-05-16T11:30:14;102278.38;;;15.05;51.16
71772;BME280;59606;52.138;5.424;2023-05-16T11:32:43;102289.50;;;14.93;50.03
71772;BME280;59606;52.138;5.424;2023-05-16T11:35:11;102289.28;;;14.61;50.25
71772;BME280;59606;52.138;5.424;2023-05-16T11:37:50;102282.91;;;14.48;52.61
71772;BME280;59606;52.138;5.424;2023-05-16T11:40:17;102299.63;;;14.45;52.51
71772;BME280;59606;52.138;5.424;2023-05-16T11:42:45;102298.88;;;14.43;52.39
71772;BME280;59606;52.138;5.424;2023-05-16T11:45:16;102297.38;;;14.37;53.27
71772;BME280;59606;52.138;5.424;2023-05-16T11:47:44;102301.91;;;14.34;53.33
71772;BME280;59606;52.138;5.424;2023-05-16T11:50:13;102305.63;;;14.30;54.60
71772;BME280;59606;52.138;5.424;2023-05-16T11:52:45;102299.44;;;14.31;53.64
71772;BME280;59606;52.138;5.424;2023-05-16T11:55:14;102315.31;;;14.28;55.07
71772;BME280;59606;52.138;5.424;2023-05-16T11:57:59;102310.34;;;14.22;54.71
71772;BME280;59606;52.138;5.424;2023-05-16T12:00:26;102313.16;;;14.19;55.98
71772;BME280;59606;52.138;5.424;2023-05-16T12:02:57;102319.09;;;14.22;55.05
71772;BME280;59606;52.138;5.424;2023-05-16T12:05:26;102313.19;;;14.17;55.29
71772;BME280;59606;52.138;5.424;2023-05-16T12:07:54;102319.56;;;14.11;55.50
71772;BME280;59606;52.138;5.424;2023-05-16T12:10:21;102315.47;;;14.06;56.60
71772;BME280;59606;52.138;5.424;2023-05-16T12:12:49;102311.84;;;14.27;56.29
71772;BME280;59606;52.138;5.424;2023-05-16T12:15:18;102305.91;;;14.43;56.80
71772;BME280;59606;52.138;5.424;2023-05-16T12:17:45;102315.31;;;14.66;55.97
71772;BME280;59606;52.138;5.424;2023-05-16T12:20:13;102305.69;;;14.83;54.39
71772;BME280;59606;52.138;5.424;2023-05-16T12:22:43;102306.28;;;14.89;54.37
71772;BME280;59606;52.138;5.424;2023-05-16T12:25:29;102309.00;;;14.70;53.64
71772;BME280;59606;52.138;5.424;2023-05-16T12:27:59;102302.34;;;14.63;54.75
71772;BME280;59606;52.138;5.424;2023-05-16T12:30:27;102303.66;;;14.71;55.61
71772;BME280;59606;52.138;5.424;2023-05-16T12:32:58;102308.06;;;14.71;55.56
71772;BME280;59606;52.138;5.424;2023-05-16T12:35:31;102310.69;;;14.71;56.52
71772;BME280;59606;52.138;5.424;2023-05-16T12:38:05;102311.06;;;14.63;55.57
71772;BME280;59606;52.138;5.424;2023-05-16T12:40:35;102307.44;;;14.66;57.10
71772;BME280;59606;52.138;5.424;2023-05-16T12:43:02;102315.88;;;14.72;56.96
71772;BME280;59606;52.138;5.424;2023-05-16T12:45:28;102313.84;;;14.60;57.50
71772;BME280;59606;52.138;5.424;2023-05-16T12:48:04;102308.81;;;14.55;58.75
71772;BME280;59606;52.138;5.424;2023-05-16T12:50:34;102314.16;;;14.71;59.17
71772;BME280;59606;52.138;5.424;2023-05-16T12:53:01;102314.66;;;14.79;57.70
71772;BME280;59606;52.138;5.424;2023-05-16T12:55:28;102303.22;;;14.80;57.60
71772;BME280;59606;52.138;5.424;2023-05-16T12:57:55;102309.31;;;14.81;58.25
71772;BME280;59606;52.138;5.424;2023-05-16T13:00:23;102317.31;;;14.78;58.00
71772;BME280;59606;52.138;5.424;2023-05-16T13:02:50;102319.09;;;14.77;57.80
71772;BME280;59606;52.138;5.424;2023-05-16T13:05:17;102318.41;;;14.74;57.40
71772;BME280;59606;52.138;5.424;2023-05-16T13:07:44;102316.47;;;14.60;56.55
71772;BME280;59606;52.138;5.424;2023-05-16T13:10:11;102319.13;;;14.58;57.54
71772;BME280;59606;52.138;5.424;2023-05-16T13:12:38;102319.38;;;14.54;55.70
71772;BME280;59606;52.138;5.424;2023-05-16T13:15:07;102319.63;;;14.48;55.83
71772;BME280;59606;52.138;5.424;2023-05-16T13:17:34;102317.06;;;14.65;57.05
71772;BME280;59606;52.138;5.424;2023-05-16T13:20:02;102321.44;;;14.83;55.38
71772;BME280;59606;52.138;5.424;2023-05-16T13:22:36;102327.75;;;14.79;54.49
71772;BME280;59606;52.138;5.424;2023-05-16T13:25:04;102322.63;;;14.59;54.83
71772;BME280;59606;52.138;5.424;2023-05-16T13:27:32;102325.94;;;14.44;56.03
71772;BME280;59606;52.138;5.424;2023-05-16T13:29:59;102316.91;;;14.32;56.53
71772;BME280;59606;52.138;5.424;2023-05-16T13:32:26;102322.34;;;14.27;56.12
71772;BME280;59606;52.138;5.424;2023-05-16T13:34:52;102325.81;;;14.28;56.82
71772;BME280;59606;52.138;5.424;2023-05-16T13:37:19;102332.75;;;14.29;57.74